sensor_id;sensor_type;location;lat;lon;timestamp;P1;durP1;ratioP1;P2;durP2;ratioP2
64252;SDS011;50592;52.958;-7.470;2023-03-01T00:01:33;5.20;;;3.25;;
64252;SDS011;50592;52.958;-7.470;2023-03-01T00:03:59;5.32;;;3.40;;
64252;SDS011;50592;52.958;-7.470;2023-03-01T00:06:25;5.57;;;3.45;;
64252;SDS011;50592;52.958;-7.470;2023-03-01T00:08:52;4.10;;;3.15;;
64252;SDS011;50592;52.958;-7.470;2023-03-01T00:11:28;4.45;;;3.13;;
64252;SDS011;50592;52.958;-7.470;2023-03-01T00:13:56;5.22;;;3.00;;
64252;SDS011;50592;52.958;-7.470;2023-03-01T00:16:25;5.22;;;3.05;;
64252;SDS011;50592;52.958;-7.470;2023-03-01T00:18:53;3.53;;;2.50;;
64252;SDS011;50592;52.958;-7.470;2023-03-01T00:21:21;4.15;;;2.85;;
64252;SDS011;50592;52.958;-7.470;2023-03-01T00:23:50;7.53;;;3.00;;
64252;SDS011;50592;52.958;-7.470;2023-03-01T00:26:16;5.50;;;3.60;;
64252;SDS011;50592;52.958;-7.470;2023-03-01T00:28:44;4.50;;;3.53;;
64252;SDS011;50592;52.958;-7.470;2023-03-01T00:31:12;3.33;;;2.65;;
64252;SDS011;50592;52.958;-7.470;2023-03-01T00:33:41;7.00;;;3.55;;
64252;SDS011;50592;52.958;-7.470;2023-03-01T00:36:08;5.75;;;3.22;;
64252;SDS011;50592;52.958;-7.470;2023-03-01T00:38:38;4.72;;;3.28;;
64252;SDS011;50592;52.958;-7.470;2023-03-01T00:41:08;3.92;;;3.15;;
64252;SDS011;50592;52.958;-7.470;2023-03-01T00:43:36;6.95;;;3.60;;
64252;SDS011;50592;52.958;-7.470;2023-03-01T00:46:06;6.45;;;3.17;;
64252;SDS011;50592;52.958;-7.470;2023-03-01T00:48:34;4.38;;;2.95;;
64252;SDS011;50592;52.958;-7.470;2023-03-01T00:51:04;6.05;;;3.08;;
64252;SDS011;50592;52.958;-7.470;2023-03-01T00:53:50;3.92;;;2.63;;
64252;SDS011;50592;52.958;-7.470;2023-03-01T00:56:17;8.35;;;3.58;;
64252;SDS011;50592;52.958;-7.470;2023-03-01T00:58:44;2.42;;;2.13;;
64252;SDS011;50592;52.958;-7.470;2023-03-01T01:01:10;5.38;;;2.80;;
64252;SDS011;50592;52.958;-7.470;2023-03-01T01:03:57;3.95;;;2.42;;
64252;SDS011;50592;52.958;-7.470;2023-03-01T01:06:25;7.22;;;3.00;;
64252;SDS011;50592;52.958;-7.470;2023-03-01T01:08:53;7.18;;;4.25;;
64252;SDS011;50592;52.958;-7.470;2023-03-01T01:11:20;6.57;;;3.08;;
64252;SDS011;50592;52.958;-7.470;2023-03-01T01:13:47;5.18;;;3.00;;
64252;SDS011;50592;52.958;-7.470;2023-03-01T01:16:14;3.00;;;2.70;;
64252;SDS011;50592;52.958;-7.470;2023-03-01T01:18:42;9.27;;;3.15;;
64252;SDS011;50592;52.958;-7.470;2023-03-01T01:21:09;3.58;;;2.42;;
64252;SDS011;50592;52.958;-7.470;2023-03-01T01:23:37;3.08;;;2.78;;
64252;SDS011;50592;52.958;-7.470;2023-03-01T01:26:10;4.82;;;2.55;;
64252;SDS011;50592;52.958;-7.470;2023-03-01T01:28:45;3.75;;;2.25;;
64252;SDS011;50592;52.958;-7.470;2023-03-01T01:31:12;5.03;;;2.38;;
64252;SDS011;50592;52.958;-7.470;2023-03-01T01:33:38;4.20;;;2.33;;
64252;SDS011;50592;52.958;-7.470;2023-03-01T01:36:04;4.22;;;2.20;;
64252;SDS011;50592;52.958;-7.470;2023-03-01T01:38:31;3.30;;;2.88;;
64252;SDS011;50592;52.958;-7.470;2023-03-01T01:40:57;5.18;;;2.58;;
64252;SDS011;50592;52.958;-7.470;2023-03-01T01:43:26;4.38;;;2.35;;
64252;SDS011;50592;52.958;-7.470;2023-03-01T01:46:01;9.38;;;2.53;;
64252;SDS011;50592;52.958;-7.470;2023-03-01T01:48:40;5.55;;;2.53;;
64252;SDS011;50592;52.958;-7.470;2023-03-01T01:51:13;5.00;;;2.10;;
64252;SDS011;50592;52.958;-7.470;2023-03-01T01:53:46;3.42;;;2.78;;
64252;SDS011;50592;52.958;-7.470;2023-03-01T01:56:16;4.32;;;2.35;;
64252;SDS011;50592;52.958;-7.470;2023-03-01T01:58:44;3.25;;;2.33;;
64252;SDS011;50592;52.958;-7.470;2023-03-01T02:01:12;2.10;;;1.90;;
64252;SDS011;50592;52.958;-7.470;2023-03-01T02:03:39;5.75;;;2.47;;
64252;SDS011;50592;52.958;-7.470;2023-03-01T02:06:27;5.07;;;2.92;;
64252;SDS011;50592;52.958;-7.470;2023-03-01T02:08:57;4.43;;;1.95;;
64252;SDS011;50592;52.958;-7.470;2023-03-01T02:11:27;3.25;;;1.60;;
64252;SDS011;50592;52.958;-7.470;2023-03-01T02:13:54;4.63;;;2.33;;
64252;SDS011;50592;52.958;-7.470;2023-03-01T02:16:20;2.20;;;2.00;;
64252;SDS011;50592;52.958;-7.470;2023-03-01T02:18:46;3.35;;;2.28;;
64252;SDS011;50592;52.958;-7.470;2023-03-01T02:23:58;4.28;;;3.13;;
64252;SDS011;50592;52.958;-7.470;2023-03-01T02:28:58;7.07;;;2.85;;
64252;SDS011;50592;52.958;-7.470;2023-03-01T02:31:25;3.78;;;2.92;;
64252;SDS011;50592;52.958;-7.470;2023-03-01T02:36:43;5.38;;;3.38;;
64252;SDS011;50592;52.958;-7.470;2023-03-01T02:39:13;3.35;;;2.28;;
64252;SDS011;50592;52.958;-7.470;2023-03-01T02:41:48;8.02;;;3.92;;
64252;SDS011;50592;52.958;-7.470;2023-03-01T02:44:17;4.47;;;3.33;;
64252;SDS011;50592;52.958;-7.470;2023-03-01T02:46:44;5.47;;;3.35;;
64252;SDS011;50592;52.958;-7.470;2023-03-01T02:49:29;5.95;;;3.78;;
64252;SDS011;50592;52.958;-7.470;2023-03-01T02:54:43;5.43;;;3.50;;
64252;SDS011;50592;52.958;-7.470;2023-03-01T02:57:16;3.80;;;3.10;;
64252;SDS011;50592;52.958;-7.470;2023-03-01T02:59:44;5.03;;;3.75;;
64252;SDS011;50592;52.958;-7.470;2023-03-01T03:02:24;4.60;;;3.05;;
64252;SDS011;50592;52.958;-7.470;2023-03-01T03:07:39;3.78;;;2.30;;
64252;SDS011;50592;52.958;-7.470;2023-03-01T03:10:08;5.57;;;3.60;;
64252;SDS011;50592;52.958;-7.470;2023-03-01T03:12:37;5.13;;;3.38;;
64252;SDS011;50592;52.958;-7.470;2023-03-01T03:15:04;4.63;;;2.95;;
64252;SDS011;50592;52.958;-7.470;2023-03-01T03:17:35;6.10;;;3.10;;
64252;SDS011;50592;52.958;-7.470;2023-03-01T03:20:06;3.33;;;3.03;;
64252;SDS011;50592;52.958;-7.470;2023-03-01T03:22:39;3.72;;;2.15;;
64252;SDS011;50592;52.958;-7.470;2023-03-01T03:25:09;3.28;;;2.83;;
64252;SDS011;50592;52.958;-7.470;2023-03-01T03:27:39;5.35;;;3.10;;
64252;SDS011;50592;52.958;-7.470;2023-03-01T03:30:10;4.18;;;3.45;;
64252;SDS011;50592;52.958;-7.470;2023-03-01T03:32:39;5.07;;;2.50;;
64252;SDS011;50592;52.958;-7.470;2023-03-01T03:35:06;5.30;;;3.70;;
64252;SDS011;50592;52.958;-7.470;2023-03-01T03:37:37;5.15;;;3.40;;
64252;SDS011;50592;52.958;-7.470;2023-03-01T03:40:24;7.68;;;3.45;;
64252;SDS011;50592;52.958;-7.470;2023-03-01T03:42:51;7.80;;;3.90;;
64252;SDS011;50592;52.958;-7.470;2023-03-01T03:45:17;4.18;;;3.15;;
64252;SDS011;50592;52.958;-7.470;2023-03-01T03:47:43;4.03;;;3.53;;
64252;SDS011;50592;52.958;-7.470;2023-03-01T03:50:10;5.57;;;3.35;;
64252;SDS011;50592;52.958;-7.470;2023-03-01T03:52:37;6.55;;;3.08;;
64252;SDS011;50592;52.958;-7.470;2023-03-01T03:55:04;4.07;;;3.00;;
64252;SDS011;50592;52.958;-7.470;2023-03-01T03:57:42;6.80;;;3.35;;
64252;SDS011;50592;52.958;-7.470;2023-03-01T04:00:11;5.15;;;3.45;;
64252;SDS011;50592;52.958;-7.470;2023-03-01T04:02:43;4.90;;;2.90;;
64252;SDS011;50592;52.958;-7.470;2023-03-01T04:05:11;3.00;;;2.42;;
64252;SDS011;50592;52.958;-7.470;2023-03-01T04:07:39;4.15;;;2.63;;
64252;SDS011;50592;52.958;-7.470;2023-03-01T04:10:06;3.75;;;2.85;;
64252;SDS011;50592;52.958;-7.470;2023-03-01T04:12:35;7.13;;;2.60;;
64252;SDS011;50592;52.958;-7.470;2023-03-01T04:15:05;6.47;;;2.90;;
64252;SDS011;50592;52.958;-7.470;2023-03-01T04:17:42;3.72;;;2.20;;
64252;SDS011;50592;52.958;-7.470;2023-03-01T04:20:13;2.95;;;1.92;;
64252;SDS011;50592;52.958;-7.470;2023-03-01T04:22:50;3.67;;;2.25;;
64252;SDS011;50592;52.958;-7.470;2023-03-01T04:30:51;4.43;;;2.65;;
64252;SDS011;50592;52.958;-7.470;2023-03-01T04:33:17;7.28;;;3.35;;
64252;SDS011;50592;52.958;-7.470;2023-03-01T04:35:44;6.50;;;3.10;;
64252;SDS011;50592;52.958;-7.470;2023-03-01T04:38:10;3.42;;;2.45;;
64252;SDS011;50592;52.958;-7.470;2023-03-01T04:40:35;4.55;;;2.78;;
64252;SDS011;50592;52.958;-7.470;2023-03-01T04:43:02;4.53;;;2.83;;
64252;SDS011;50592;52.958;-7.470;2023-03-01T04:45:28;4.72;;;2.80;;
64252;SDS011;50592;52.958;-7.470;2023-03-01T04:47:54;3.35;;;2.45;;
64252;SDS011;50592;52.958;-7.470;2023-03-01T04:50:23;3.85;;;2.53;;
64252;SDS011;50592;52.958;-7.470;2023-03-01T04:52:50;4.28;;;3.10;;
64252;SDS011;50592;52.958;-7.470;2023-03-01T04:55:17;4.57;;;2.40;;
64252;SDS011;50592;52.958;-7.470;2023-03-01T04:57:43;3.80;;;2.40;;
64252;SDS011;50592;52.958;-7.470;2023-03-01T05:00:13;5.38;;;2.78;;
64252;SDS011;50592;52.958;-7.470;2023-03-01T05:05:22;4.03;;;2.28;;
64252;SDS011;50592;52.958;-7.470;2023-03-01T05:07:56;3.13;;;2.05;;
64252;SDS011;50592;52.958;-7.470;2023-03-01T05:10:25;4.05;;;2.20;;
64252;SDS011;50592;52.958;-7.470;2023-03-01T05:12:51;3.78;;;2.45;;
64252;SDS011;50592;52.958;-7.470;2023-03-01T05:15:18;11.00;;;2.00;;
64252;SDS011;50592;52.958;-7.470;2023-03-01T05:17:47;2.20;;;1.92;;
64252;SDS011;50592;52.958;-7.470;2023-03-01T05:20:13;4.57;;;1.92;;
64252;SDS011;50592;52.958;-7.470;2023-03-01T05:22:39;4.60;;;2.00;;
64252;SDS011;50592;52.958;-7.470;2023-03-01T05:25:05;2.90;;;1.63;;
64252;SDS011;50592;52.958;-7.470;2023-03-01T05:27:32;4.47;;;1.90;;
64252;SDS011;50592;52.958;-7.470;2023-03-01T05:29:58;5.35;;;1.83;;
64252;SDS011;50592;52.958;-7.470;2023-03-01T05:32:24;5.22;;;2.05;;
64252;SDS011;50592;52.958;-7.470;2023-03-01T05:34:50;4.07;;;1.77;;
64252;SDS011;50592;52.958;-7.470;2023-03-01T05:37:17;2.67;;;1.65;;
64252;SDS011;50592;52.958;-7.470;2023-03-01T05:39:43;2.45;;;1.77;;
64252;SDS011;50592;52.958;-7.470;2023-03-01T05:42:10;3.15;;;1.58;;
64252;SDS011;50592;52.958;-7.470;2023-03-01T05:44:36;4.10;;;1.75;;
64252;SDS011;50592;52.958;-7.470;2023-03-01T05:47:02;2.53;;;1.70;;
64252;SDS011;50592;52.958;-7.470;2023-03-01T05:49:27;3.20;;;1.75;;
64252;SDS011;50592;52.958;-7.470;2023-03-01T05:51:54;4.13;;;1.70;;
64252;SDS011;50592;52.958;-7.470;2023-03-01T05:54:20;5.13;;;1.83;;
64252;SDS011;50592;52.958;-7.470;2023-03-01T05:56:47;4.05;;;2.10;;
64252;SDS011;50592;52.958;-7.470;2023-03-01T05:59:13;7.82;;;2.33;;
64252;SDS011;50592;52.958;-7.470;2023-03-01T06:01:40;4.57;;;1.80;;
64252;SDS011;50592;52.958;-7.470;2023-03-01T06:04:06;6.07;;;3.70;;
64252;SDS011;50592;52.958;-7.470;2023-03-01T06:06:37;3.20;;;1.55;;
64252;SDS011;50592;52.958;-7.470;2023-03-01T06:09:04;2.53;;;1.48;;
64252;SDS011;50592;52.958;-7.470;2023-03-01T06:11:35;4.90;;;2.20;;
64252;SDS011;50592;52.958;-7.470;2023-03-01T06:14:02;1.98;;;1.42;;
64252;SDS011;50592;52.958;-7.470;2023-03-01T06:16:28;1.70;;;1.50;;
64252;SDS011;50592;52.958;-7.470;2023-03-01T06:18:54;1.58;;;0.80;;
64252;SDS011;50592;52.958;-7.470;2023-03-01T06:21:20;2.70;;;0.82;;
64252;SDS011;50592;52.958;-7.470;2023-03-01T06:23:45;1.33;;;0.70;;
64252;SDS011;50592;52.958;-7.470;2023-03-01T06:26:11;2.88;;;0.88;;
64252;SDS011;50592;52.958;-7.470;2023-03-01T06:28:37;4.97;;;1.13;;
64252;SDS011;50592;52.958;-7.470;2023-03-01T06:31:03;2.20;;;0.80;;
64252;SDS011;50592;52.958;-7.470;2023-03-01T06:33:29;4.05;;;0.65;;
64252;SDS011;50592;52.958;-7.470;2023-03-01T06:35:55;1.80;;;0.70;;
64252;SDS011;50592;52.958;-7.470;2023-03-01T06:38:22;1.30;;;0.85;;
64252;SDS011;50592;52.958;-7.470;2023-03-01T06:40:52;1.50;;;0.70;;
64252;SDS011;50592;52.958;-7.470;2023-03-01T06:43:19;0.95;;;0.30;;
64252;SDS011;50592;52.958;-7.470;2023-03-01T06:45:45;1.25;;;0.40;;
64252;SDS011;50592;52.958;-7.470;2023-03-01T06:48:11;3.22;;;0.80;;
64252;SDS011;50592;52.958;-7.470;2023-03-01T06:50:37;1.75;;;0.30;;
64252;SDS011;50592;52.958;-7.470;2023-03-01T06:53:03;2.72;;;0.40;;
64252;SDS011;50592;52.958;-7.470;2023-03-01T06:55:30;0.95;;;0.38;;
64252;SDS011;50592;52.958;-7.470;2023-03-01T06:57:56;1.95;;;0.25;;
64252;SDS011;50592;52.958;-7.470;2023-03-01T07:00:23;1.67;;;0.60;;
64252;SDS011;50592;52.958;-7.470;2023-03-01T07:02:49;1.08;;;0.47;;
64252;SDS011;50592;52.958;-7.470;2023-03-01T07:05:16;1.50;;;0.30;;
64252;SDS011;50592;52.958;-7.470;2023-03-01T07:07:41;1.55;;;0.17;;
64252;SDS011;50592;52.958;-7.470;2023-03-01T07:10:08;1.65;;;0.32;;
64252;SDS011;50592;52.958;-7.470;2023-03-01T07:12:34;1.38;;;0.28;;
64252;SDS011;50592;52.958;-7.470;2023-03-01T07:15:00;3.03;;;0.50;;
64252;SDS011;50592;52.958;-7.470;2023-03-01T07:17:26;1.70;;;0.32;;
64252;SDS011;50592;52.958;-7.470;2023-03-01T07:19:52;1.08;;;0.30;;
64252;SDS011;50592;52.958;-7.470;2023-03-01T07:22:18;1.60;;;0.40;;
64252;SDS011;50592;52.958;-7.470;2023-03-01T07:24:43;1.83;;;0.35;;
64252;SDS011;50592;52.958;-7.470;2023-03-01T07:27:09;3.40;;;0.45;;
64252;SDS011;50592;52.958;-7.470;2023-03-01T07:29:35;3.92;;;0.60;;
64252;SDS011;50592;52.958;-7.470;2023-03-01T07:32:04;2.08;;;0.30;;
64252;SDS011;50592;52.958;-7.470;2023-03-01T07:34:31;1.58;;;0.20;;
64252;SDS011;50592;52.958;-7.470;2023-03-01T07:36:57;0.73;;;0.20;;
64252;SDS011;50592;52.958;-7.470;2023-03-01T07:39:23;3.63;;;0.52;;
64252;SDS011;50592;52.958;-7.470;2023-03-01T07:41:49;2.50;;;0.65;;
64252;SDS011;50592;52.958;-7.470;2023-03-01T07:44:20;2.65;;;0.50;;
64252;SDS011;50592;52.958;-7.470;2023-03-01T07:46:46;1.38;;;0.52;;
64252;SDS011;50592;52.958;-7.470;2023-03-01T07:49:11;3.20;;;0.63;;
64252;SDS011;50592;52.958;-7.470;2023-03-01T07:51:37;3.00;;;0.40;;
64252;SDS011;50592;52.958;-7.470;2023-03-01T07:54:03;3.25;;;0.90;;
64252;SDS011;50592;52.958;-7.470;2023-03-01T07:56:29;3.75;;;1.08;;
64252;SDS011;50592;52.958;-7.470;2023-03-01T07:58:54;2.13;;;0.93;;
64252;SDS011;50592;52.958;-7.470;2023-03-01T08:01:20;2.90;;;1.05;;
64252;SDS011;50592;52.958;-7.470;2023-03-01T08:03:47;1.85;;;0.75;;
64252;SDS011;50592;52.958;-7.470;2023-03-01T08:06:15;1.58;;;0.65;;
64252;SDS011;50592;52.958;-7.470;2023-03-01T08:08:43;2.15;;;0.82;;
64252;SDS011;50592;52.958;-7.470;2023-03-01T08:11:10;1.52;;;0.68;;
64252;SDS011;50592;52.958;-7.470;2023-03-01T08:13:37;1.50;;;0.55;;
64252;SDS011;50592;52.958;-7.470;2023-03-01T08:16:05;3.25;;;0.73;;
64252;SDS011;50592;52.958;-7.470;2023-03-01T08:18:32;2.72;;;0.52;;
64252;SDS011;50592;52.958;-7.470;2023-03-01T08:21:05;1.00;;;0.47;;
64252;SDS011;50592;52.958;-7.470;2023-03-01T08:23:38;1.23;;;0.30;;
64252;SDS011;50592;52.958;-7.470;2023-03-01T08:28:31;3.65;;;0.90;;
64252;SDS011;50592;52.958;-7.470;2023-03-01T08:30:57;4.32;;;0.77;;
64252;SDS011;50592;52.958;-7.470;2023-03-01T08:33:22;1.10;;;0.40;;
64252;SDS011;50592;52.958;-7.470;2023-03-01T08:35:48;2.10;;;0.63;;
64252;SDS011;50592;52.958;-7.470;2023-03-01T08:38:14;0.95;;;0.55;;
64252;SDS011;50592;52.958;-7.470;2023-03-01T08:40:40;3.58;;;0.65;;
64252;SDS011;50592;52.958;-7.470;2023-03-01T08:43:05;0.90;;;0.40;;
64252;SDS011;50592;52.958;-7.470;2023-03-01T08:45:31;3.80;;;0.65;;
64252;SDS011;50592;52.958;-7.470;2023-03-01T08:47:57;3.13;;;1.02;;
64252;SDS011;50592;52.958;-7.470;2023-03-01T08:50:23;6.05;;;0.82;;
64252;SDS011;50592;52.958;-7.470;2023-03-01T08:52:49;3.30;;;0.70;;
64252;SDS011;50592;52.958;-7.470;2023-03-01T08:55:15;6.40;;;0.98;;
64252;SDS011;50592;52.958;-7.470;2023-03-01T08:57:42;3.65;;;0.90;;
64252;SDS011;50592;52.958;-7.470;2023-03-01T09:00:09;3.83;;;1.33;;
64252;SDS011;50592;52.958;-7.470;2023-03-01T09:02:36;6.80;;;0.85;;
64252;SDS011;50592;52.958;-7.470;2023-03-01T09:05:04;0.88;;;0.30;;
64252;SDS011;50592;52.958;-7.470;2023-03-01T09:07:29;1.70;;;0.50;;
64252;SDS011;50592;52.958;-7.470;2023-03-01T09:09:55;2.20;;;0.38;;
64252;SDS011;50592;52.958;-7.470;2023-03-01T09:12:21;1.60;;;0.40;;
64252;SDS011;50592;52.958;-7.470;2023-03-01T09:14:47;0.38;;;0.20;;
64252;SDS011;50592;52.958;-7.470;2023-03-01T09:17:13;1.63;;;0.30;;
64252;SDS011;50592;52.958;-7.470;2023-03-01T09:19:39;2.55;;;0.50;;
64252;SDS011;50592;52.958;-7.470;2023-03-01T09:22:04;2.28;;;0.20;;
64252;SDS011;50592;52.958;-7.470;2023-03-01T09:24:30;3.35;;;0.50;;
64252;SDS011;50592;52.958;-7.470;2023-03-01T09:26:56;2.03;;;0.52;;
64252;SDS011;50592;52.958;-7.470;2023-03-01T09:29:23;1.33;;;0.30;;
64252;SDS011;50592;52.958;-7.470;2023-03-01T09:31:49;2.88;;;0.82;;
64252;SDS011;50592;52.958;-7.470;2023-03-01T09:34:15;11.80;;;0.60;;
64252;SDS011;50592;52.958;-7.470;2023-03-01T09:36:44;2.47;;;0.60;;
64252;SDS011;50592;52.958;-7.470;2023-03-01T09:39:10;4.07;;;0.85;;
64252;SDS011;50592;52.958;-7.470;2023-03-01T09:46:56;5.10;;;0.50;;
64252;SDS011;50592;52.958;-7.470;2023-03-01T09:51:57;1.75;;;0.38;;
64252;SDS011;50592;52.958;-7.470;2023-03-01T09:54:44;1.67;;;0.38;;
64252;SDS011;50592;52.958;-7.470;2023-03-01T10:00:02;5.80;;;0.40;;
64252;SDS011;50592;52.958;-7.470;2023-03-01T10:02:33;1.02;;;0.40;;
64252;SDS011;50592;52.958;-7.470;2023-03-01T10:05:31;2.08;;;0.40;;
64252;SDS011;50592;52.958;-7.470;2023-03-01T10:10:34;0.77;;;0.10;;
64252;SDS011;50592;52.958;-7.470;2023-03-01T10:13:07;1.23;;;0.40;;
64252;SDS011;50592;52.958;-7.470;2023-03-01T10:15:39;0.47;;;0.40;;
64252;SDS011;50592;52.958;-7.470;2023-03-01T10:18:11;1.45;;;0.40;;
64252;SDS011;50592;52.958;-7.470;2023-03-01T10:23:10;1.52;;;0.43;;
64252;SDS011;50592;52.958;-7.470;2023-03-01T10:25:55;2.17;;;0.47;;
64252;SDS011;50592;52.958;-7.470;2023-03-01T10:31:38;1.55;;;0.80;;
64252;SDS011;50592;52.958;-7.470;2023-03-01T10:34:09;2.15;;;0.57;;
64252;SDS011;50592;52.958;-7.470;2023-03-01T10:36:38;2.83;;;0.52;;
64252;SDS011;50592;52.958;-7.470;2023-03-01T10:39:39;1.70;;;0.80;;
64252;SDS011;50592;52.958;-7.470;2023-03-01T10:41:59;6.78;;;0.80;;
64252;SDS011;50592;52.958;-7.470;2023-03-01T10:47:01;2.17;;;1.23;;
64252;SDS011;50592;52.958;-7.470;2023-03-01T10:49:28;0.55;;;0.30;;
64252;SDS011;50592;52.958;-7.470;2023-03-01T10:51:53;2.88;;;0.70;;
64252;SDS011;50592;52.958;-7.470;2023-03-01T10:56:57;1.35;;;0.30;;
64252;SDS011;50592;52.958;-7.470;2023-03-01T10:59:35;2.35;;;0.32;;
64252;SDS011;50592;52.958;-7.470;2023-03-01T11:04:35;4.50;;;0.38;;
64252;SDS011;50592;52.958;-7.470;2023-03-01T11:07:02;3.03;;;0.40;;
64252;SDS011;50592;52.958;-7.470;2023-03-01T11:09:31;2.05;;;0.20;;
64252;SDS011;50592;52.958;-7.470;2023-03-01T11:12:13;0.88;;;0.47;;
64252;SDS011;50592;52.958;-7.470;2023-03-01T11:14:46;1.08;;;0.40;;
64252;SDS011;50592;52.958;-7.470;2023-03-01T11:17:23;6.22;;;0.40;;
64252;SDS011;50592;52.958;-7.470;2023-03-01T11:20:29;4.07;;;0.25;;
64252;SDS011;50592;52.958;-7.470;2023-03-01T11:22:55;2.30;;;0.52;;
64252;SDS011;50592;52.958;-7.470;2023-03-01T11:25:25;1.13;;;0.32;;
64252;SDS011;50592;52.958;-7.470;2023-03-01T11:27:54;1.00;;;0.20;;
64252;SDS011;50592;52.958;-7.470;2023-03-01T11:33:32;0.82;;;0.28;;
64252;SDS011;50592;52.958;-7.470;2023-03-01T11:38:49;1.63;;;0.20;;
64252;SDS011;50592;52.958;-7.470;2023-03-01T11:41:23;1.75;;;0.30;;
64252;SDS011;50592;52.958;-7.470;2023-03-01T11:43:59;2.72;;;0.30;;
64252;SDS011;50592;52.958;-7.470;2023-03-01T11:49:19;1.13;;;0.30;;
64252;SDS011;50592;52.958;-7.470;2023-03-01T12:23:20;1.05;;;0.30;;
64252;SDS011;50592;52.958;-7.470;2023-03-01T12:51:01;11.05;;;2.28;;
64252;SDS011;50592;52.958;-7.470;2023-03-01T12:53:32;3.60;;;0.68;;
64252;SDS011;50592;52.958;-7.470;2023-03-01T12:56:11;4.43;;;0.90;;
64252;SDS011;50592;52.958;-7.470;2023-03-01T13:06:55;1.70;;;0.57;;
64252;SDS011;50592;52.958;-7.470;2023-03-01T13:17:52;0.70;;;0.17;;
64252;SDS011;50592;52.958;-7.470;2023-03-01T13:20:27;0.20;;;0.20;;
64252;SDS011;50592;52.958;-7.470;2023-03-01T13:23:09;3.97;;;0.35;;
64252;SDS011;50592;52.958;-7.470;2023-03-01T13:30:59;0.50;;;0.25;;
64252;SDS011;50592;52.958;-7.470;2023-03-01T13:35:53;0.30;;;0.20;;
64252;SDS011;50592;52.958;-7.470;2023-03-01T13:38:38;0.22;;;0.20;;
64252;SDS011;50592;52.958;-7.470;2023-03-01T13:41:12;3.13;;;0.20;;
64252;SDS011;50592;52.958;-7.470;2023-03-01T13:43:44;1.67;;;0.40;;
64252;SDS011;50592;52.958;-7.470;2023-03-01T13:46:16;1.23;;;0.30;;
64252;SDS011;50592;52.958;-7.470;2023-03-01T13:48:55;1.00;;;0.38;;
64252;SDS011;50592;52.958;-7.470;2023-03-01T13:51:26;0.77;;;0.40;;
64252;SDS011;50592;52.958;-7.470;2023-03-01T13:53:54;0.40;;;0.10;;
64252;SDS011;50592;52.958;-7.470;2023-03-01T13:56:25;2.28;;;0.80;;
64252;SDS011;50592;52.958;-7.470;2023-03-01T13:59:16;0.52;;;0.20;;
64252;SDS011;50592;52.958;-7.470;2023-03-01T14:01:44;2.25;;;0.50;;
64252;SDS011;50592;52.958;-7.470;2023-03-01T14:09:42;1.67;;;0.60;;
64252;SDS011;50592;52.958;-7.470;2023-03-01T14:22:49;0.60;;;0.28;;
64252;SDS011;50592;52.958;-7.470;2023-03-01T14:27:57;2.03;;;0.40;;
64252;SDS011;50592;52.958;-7.470;2023-03-01T14:30:31;1.30;;;0.30;;
64252;SDS011;50592;52.958;-7.470;2023-03-01T14:36:09;1.80;;;0.40;;
64252;SDS011;50592;52.958;-7.470;2023-03-01T14:38:37;2.33;;;0.40;;
64252;SDS011;50592;52.958;-7.470;2023-03-01T14:41:27;1.65;;;0.68;;
64252;SDS011;50592;52.958;-7.470;2023-03-01T14:43:57;3.67;;;0.60;;
64252;SDS011;50592;52.958;-7.470;2023-03-01T14:46:32;0.88;;;0.43;;
64252;SDS011;50592;52.958;-7.470;2023-03-01T14:51:39;1.42;;;0.50;;
64252;SDS011;50592;52.958;-7.470;2023-03-01T14:54:18;1.02;;;0.40;;
64252;SDS011;50592;52.958;-7.470;2023-03-01T14:56:54;3.58;;;0.70;;
64252;SDS011;50592;52.958;-7.470;2023-03-01T14:59:23;1.60;;;0.80;;
64252;SDS011;50592;52.958;-7.470;2023-03-01T15:01:54;1.05;;;0.55;;
64252;SDS011;50592;52.958;-7.470;2023-03-01T15:04:22;3.10;;;1.13;;
64252;SDS011;50592;52.958;-7.470;2023-03-01T15:06:52;3.28;;;1.45;;
64252;SDS011;50592;52.958;-7.470;2023-03-01T15:09:20;7.20;;;0.88;;
64252;SDS011;50592;52.958;-7.470;2023-03-01T15:11:47;1.65;;;0.60;;
64252;SDS011;50592;52.958;-7.470;2023-03-01T15:14:38;4.50;;;0.82;;
64252;SDS011;50592;52.958;-7.470;2023-03-01T15:17:20;1.70;;;0.63;;
64252;SDS011;50592;52.958;-7.470;2023-03-01T15:20:13;0.52;;;0.20;;
64252;SDS011;50592;52.958;-7.470;2023-03-01T15:22:43;2.47;;;0.65;;
64252;SDS011;50592;52.958;-7.470;2023-03-01T15:25:16;2.13;;;0.45;;
64252;SDS011;50592;52.958;-7.470;2023-03-01T15:27:45;2.13;;;0.55;;
64252;SDS011;50592;52.958;-7.470;2023-03-01T15:30:13;1.92;;;0.60;;
64252;SDS011;50592;52.958;-7.470;2023-03-01T15:32:44;3.13;;;1.20;;
64252;SDS011;50592;52.958;-7.470;2023-03-01T15:37:59;6.20;;;1.60;;
64252;SDS011;50592;52.958;-7.470;2023-03-01T15:40:27;3.60;;;1.33;;
64252;SDS011;50592;52.958;-7.470;2023-03-01T15:42:58;4.40;;;1.40;;
64252;SDS011;50592;52.958;-7.470;2023-03-01T15:45:26;2.45;;;0.82;;
64252;SDS011;50592;52.958;-7.470;2023-03-01T15:47:54;2.20;;;1.00;;
64252;SDS011;50592;52.958;-7.470;2023-03-01T15:50:27;7.20;;;1.13;;
64252;SDS011;50592;52.958;-7.470;2023-03-01T15:52:58;2.00;;;0.60;;
64252;SDS011;50592;52.958;-7.470;2023-03-01T15:55:26;3.38;;;1.00;;
64252;SDS011;50592;52.958;-7.470;2023-03-01T15:57:59;5.40;;;0.70;;
64252;SDS011;50592;52.958;-7.470;2023-03-01T16:00:35;3.95;;;1.00;;
64252;SDS011;50592;52.958;-7.470;2023-03-01T16:03:01;3.45;;;0.70;;
64252;SDS011;50592;52.958;-7.470;2023-03-01T16:05:28;4.15;;;0.80;;
64252;SDS011;50592;52.958;-7.470;2023-03-01T16:07:56;0.82;;;0.40;;
64252;SDS011;50592;52.958;-7.470;2023-03-01T16:10:23;1.92;;;0.50;;
64252;SDS011;50592;52.958;-7.470;2023-03-01T16:12:50;4.03;;;0.82;;
64252;SDS011;50592;52.958;-7.470;2023-03-01T16:15:27;0.85;;;0.40;;
64252;SDS011;50592;52.958;-7.470;2023-03-01T16:17:58;4.50;;;0.60;;
64252;SDS011;50592;52.958;-7.470;2023-03-01T16:20:26;2.17;;;0.60;;
64252;SDS011;50592;52.958;-7.470;2023-03-01T16:22:59;10.30;;;0.95;;
64252;SDS011;50592;52.958;-7.470;2023-03-01T16:25:27;1.83;;;0.90;;
64252;SDS011;50592;52.958;-7.470;2023-03-01T16:27:54;1.05;;;0.63;;
64252;SDS011;50592;52.958;-7.470;2023-03-01T16:30:21;3.05;;;0.70;;
64252;SDS011;50592;52.958;-7.470;2023-03-01T16:32:48;4.35;;;0.93;;
64252;SDS011;50592;52.958;-7.470;2023-03-01T16:35:16;3.28;;;0.80;;
64252;SDS011;50592;52.958;-7.470;2023-03-01T16:37:44;5.22;;;0.90;;
64252;SDS011;50592;52.958;-7.470;2023-03-01T16:40:21;9.90;;;1.15;;
64252;SDS011;50592;52.958;-7.470;2023-03-01T16:42:52;2.75;;;1.38;;
64252;SDS011;50592;52.958;-7.470;2023-03-01T16:45:19;2.85;;;1.13;;
64252;SDS011;50592;52.958;-7.470;2023-03-01T16:47:45;3.60;;;1.70;;
64252;SDS011;50592;52.958;-7.470;2023-03-01T16:50:10;4.38;;;1.45;;
64252;SDS011;50592;52.958;-7.470;2023-03-01T16:52:36;5.45;;;1.70;;
64252;SDS011;50592;52.958;-7.470;2023-03-01T16:55:03;3.25;;;1.38;;
64252;SDS011;50592;52.958;-7.470;2023-03-01T16:57:30;1.95;;;0.57;;
64252;SDS011;50592;52.958;-7.470;2023-03-01T16:59:56;1.23;;;0.50;;
64252;SDS011;50592;52.958;-7.470;2023-03-01T17:02:22;2.83;;;0.65;;
64252;SDS011;50592;52.958;-7.470;2023-03-01T17:04:52;0.85;;;0.30;;
64252;SDS011;50592;52.958;-7.470;2023-03-01T17:07:19;2.22;;;0.50;;
64252;SDS011;50592;52.958;-7.470;2023-03-01T17:09:45;2.50;;;0.50;;
64252;SDS011;50592;52.958;-7.470;2023-03-01T17:12:14;2.00;;;0.35;;
64252;SDS011;50592;52.958;-7.470;2023-03-01T17:14:41;1.75;;;0.40;;
64252;SDS011;50592;52.958;-7.470;2023-03-01T17:17:08;0.95;;;0.38;;
64252;SDS011;50592;52.958;-7.470;2023-03-01T17:19:35;7.53;;;0.50;;
64252;SDS011;50592;52.958;-7.470;2023-03-01T17:22:07;0.90;;;0.50;;
64252;SDS011;50592;52.958;-7.470;2023-03-01T17:24:37;1.98;;;0.82;;
64252;SDS011;50592;52.958;-7.470;2023-03-01T17:27:03;2.95;;;0.55;;
64252;SDS011;50592;52.958;-7.470;2023-03-01T17:29:30;1.55;;;0.82;;
64252;SDS011;50592;52.958;-7.470;2023-03-01T17:31:56;5.68;;;0.95;;
64252;SDS011;50592;52.958;-7.470;2023-03-01T17:34:22;2.30;;;1.00;;